sensor_id;sensor_type;location;lat;lon;timestamp;pressure;altitude;pressure_sealevel;temperature;humidity
30708;BME280;17458;48.958;8.284;2023-01-25T00:01:05;102158.41;;;5.47;68.54
30708;BME280;17458;48.958;8.284;2023-01-25T00:03:49;102156.16;;;5.68;68.69
30708;BME280;17458;48.958;8.284;2023-01-25T00:06:33;102151.63;;;5.76;68.64
30708;BME280;17458;48.958;8.284;2023-01-25T00:09:19;102150.97;;;5.96;68.16
30708;BME280;17458;48.958;8.284;2023-01-25T00:12:03;102145.50;;;5.50;69.40
30708;BME280;17458;48.958;8.284;2023-01-25T00:14:48;102138.41;;;5.93;68.08
30708;BME280;17458;48.958;8.284;2023-01-25T00:17:32;102142.88;;;5.50;68.58
30708;BME280;17458;48.958;8.284;2023-01-25T00:20:16;102144.00;;;5.34;69.56
30708;BME280;17458;48.958;8.284;2023-01-25T00:23:00;102138.31;;;5.30;69.96
30708;BME280;17458;48.958;8.284;2023-01-25T00:25:44;102136.84;;;5.59;69.41
30708;BME280;17458;48.958;8.284;2023-01-25T00:28:28;102136.41;;;5.38;69.84
30708;BME280;17458;48.958;8.284;2023-01-25T00:31:19;102131.41;;;5.58;69.69
30708;BME280;17458;48.958;8.284;2023-01-25T00:37:29;102125.16;;;5.66;68.44
30708;BME280;17458;48.958;8.284;2023-01-25T00:40:18;102124.84;;;5.63;69.34
30708;BME280;17458;48.958;8.284;2023-01-25T00:43:02;102132.38;;;5.41;69.94
30708;BME280;17458;48.958;8.284;2023-01-25T00:45:48;102121.88;;;5.32;69.65
30708;BME280;17458;48.958;8.284;2023-01-25T00:48:32;102113.72;;;5.57;69.55
30708;BME280;17458;48.958;8.284;2023-01-25T00:51:17;102118.06;;;5.03;70.16
30708;BME280;17458;48.958;8.284;2023-01-25T00:54:01;102110.63;;;5.52;69.83
30708;BME280;17458;48.958;8.284;2023-01-25T00:56:46;102104.91;;;5.56;68.46
30708;BME280;17458;48.958;8.284;2023-01-25T00:59:30;102104.47;;;5.43;69.17
30708;BME280;17458;48.958;8.284;2023-01-25T01:02:14;102098.59;;;5.37;69.85
30708;BME280;17458;48.958;8.284;2023-01-25T01:04:58;102099.78;;;5.49;69.43
30708;BME280;17458;48.958;8.284;2023-01-25T01:07:42;102094.72;;;5.78;68.74
30708;BME280;17458;48.958;8.284;2023-01-25T01:10:26;102094.06;;;5.53;69.01
30708;BME280;17458;48.958;8.284;2023-01-25T01:13:11;102094.09;;;5.45;69.29
30708;BME280;17458;48.958;8.284;2023-01-25T01:15:55;102081.19;;;5.48;69.47
30708;BME280;17458;48.958;8.284;2023-01-25T01:18:43;102084.28;;;5.52;68.75
30708;BME280;17458;48.958;8.284;2023-01-25T01:21:28;102083.75;;;5.74;68.41
30708;BME280;17458;48.958;8.284;2023-01-25T01:24:14;102085.44;;;6.09;67.69
30708;BME280;17458;48.958;8.284;2023-01-25T01:26:58;102089.69;;;5.98;67.53
30708;BME280;17458;48.958;8.284;2023-01-25T01:29:42;102088.94;;;5.91;67.35
30708;BME280;17458;48.958;8.284;2023-01-25T01:32:26;102085.81;;;5.95;68.08
30708;BME280;17458;48.958;8.284;2023-01-25T01:35:10;102091.41;;;5.53;68.84
30708;BME280;17458;48.958;8.284;2023-01-25T01:37:54;102095.78;;;5.80;68.30
30708;BME280;17458;48.958;8.284;2023-01-25T01:40:43;102099.50;;;5.82;68.60
30708;BME280;17458;48.958;8.284;2023-01-25T01:43:28;102085.72;;;5.76;68.49
30708;BME280;17458;48.958;8.284;2023-01-25T01:46:28;102097.94;;;5.93;68.04
30708;BME280;17458;48.958;8.284;2023-01-25T01:49:23;102097.44;;;5.61;68.65
30708;BME280;17458;48.958;8.284;2023-01-25T01:52:15;102089.34;;;5.68;68.88
30708;BME280;17458;48.958;8.284;2023-01-25T01:55:13;102089.22;;;6.02;67.77
30708;BME280;17458;48.958;8.284;2023-01-25T01:58:01;102084.78;;;5.76;68.21
30708;BME280;17458;48.958;8.284;2023-01-25T02:00:46;102081.94;;;6.00;67.53
30708;BME280;17458;48.958;8.284;2023-01-25T02:03:30;102089.25;;;5.49;68.43
30708;BME280;17458;48.958;8.284;2023-01-25T02:06:22;102087.72;;;5.79;68.70
30708;BME280;17458;48.958;8.284;2023-01-25T02:09:10;102085.97;;;5.60;69.26
30708;BME280;17458;48.958;8.284;2023-01-25T02:11:55;102084.63;;;5.83;68.90
30708;BME280;17458;48.958;8.284;2023-01-25T02:14:46;102088.81;;;5.89;68.65
30708;BME280;17458;48.958;8.284;2023-01-25T02:17:34;102076.38;;;5.61;69.43
30708;BME280;17458;48.958;8.284;2023-01-25T02:23:41;102085.25;;;5.80;69.07
30708;BME280;17458;48.958;8.284;2023-01-25T02:26:21;102086.75;;;5.95;68.54
30708;BME280;17458;48.958;8.284;2023-01-25T02:29:09;102081.69;;;5.80;68.94
30708;BME280;17458;48.958;8.284;2023-01-25T02:32:04;102074.44;;;5.68;69.00
30708;BME280;17458;48.958;8.284;2023-01-25T02:34:48;102079.78;;;5.51;69.08
30708;BME280;17458;48.958;8.284;2023-01-25T02:37:33;102075.06;;;5.66;68.70
30708;BME280;17458;48.958;8.284;2023-01-25T02:40:17;102065.66;;;5.59;69.47
30708;BME280;17458;48.958;8.284;2023-01-25T02:43:02;102059.16;;;5.92;68.81
30708;BME280;17458;48.958;8.284;2023-01-25T02:45:51;102065.00;;;5.70;69.14
30708;BME280;17458;48.958;8.284;2023-01-25T02:48:39;102062.44;;;5.81;68.54
30708;BME280;17458;48.958;8.284;2023-01-25T02:51:25;102059.34;;;5.76;69.11
30708;BME280;17458;48.958;8.284;2023-01-25T02:54:13;102052.59;;;5.69;69.44
30708;BME280;17458;48.958;8.284;2023-01-25T02:56:58;102057.63;;;5.49;69.43
30708;BME280;17458;48.958;8.284;2023-01-25T02:59:46;102045.38;;;5.58;69.62
30708;BME280;17458;48.958;8.284;2023-01-25T03:02:32;102050.41;;;5.74;69.08
30708;BME280;17458;48.958;8.284;2023-01-25T03:05:16;102050.19;;;5.54;69.14
30708;BME280;17458;48.958;8.284;2023-01-25T03:08:00;102051.13;;;5.82;68.72
30708;BME280;17458;48.958;8.284;2023-01-25T03:10:45;102041.25;;;5.43;69.77
30708;BME280;17458;48.958;8.284;2023-01-25T03:13:29;102053.09;;;5.93;68.45
30708;BME280;17458;48.958;8.284;2023-01-25T03:16:14;102046.47;;;5.79;68.82
30708;BME280;17458;48.958;8.284;2023-01-25T03:19:01;102042.44;;;5.55;69.51
30708;BME280;17458;48.958;8.284;2023-01-25T03:21:46;102033.66;;;5.74;68.74
30708;BME280;17458;48.958;8.284;2023-01-25T03:24:30;102043.31;;;5.64;69.34
30708;BME280;17458;48.958;8.284;2023-01-25T03:27:15;102041.03;;;5.50;69.19
30708;BME280;17458;48.958;8.284;2023-01-25T03:30:05;102034.88;;;5.05;70.35
30708;BME280;17458;48.958;8.284;2023-01-25T03:32:50;102036.44;;;5.39;70.47
30708;BME280;17458;48.958;8.284;2023-01-25T03:35:36;102036.22;;;5.19;70.99
30708;BME280;17458;48.958;8.284;2023-01-25T03:38:22;102031.53;;;5.25;71.10
30708;BME280;17458;48.958;8.284;2023-01-25T03:41:07;102034.84;;;5.50;69.98
30708;BME280;17458;48.958;8.284;2023-01-25T03:43:51;102033.25;;;5.24;71.10
30708;BME280;17458;48.958;8.284;2023-01-25T03:46:40;102030.88;;;5.36;71.05
30708;BME280;17458;48.958;8.284;2023-01-25T03:49:24;102030.63;;;5.24;70.98
30708;BME280;17458;48.958;8.284;2023-01-25T03:52:10;102032.72;;;5.01;71.66
30708;BME280;17458;48.958;8.284;2023-01-25T03:54:57;102036.69;;;5.15;71.55
30708;BME280;17458;48.958;8.284;2023-01-25T03:57:42;102035.63;;;5.49;70.81
30708;BME280;17458;48.958;8.284;2023-01-25T04:00:27;102032.34;;;5.51;70.07
30708;BME280;17458;48.958;8.284;2023-01-25T04:03:16;102030.16;;;5.28;70.95
30708;BME280;17458;48.958;8.284;2023-01-25T04:06:03;102027.31;;;5.35;70.90
30708;BME280;17458;48.958;8.284;2023-01-25T04:08:49;102027.03;;;5.32;70.53
30708;BME280;17458;48.958;8.284;2023-01-25T04:11:35;102023.59;;;5.33;71.19
30708;BME280;17458;48.958;8.284;2023-01-25T04:14:19;102023.19;;;5.20;71.53
30708;BME280;17458;48.958;8.284;2023-01-25T04:17:14;102023.78;;;5.62;70.54
30708;BME280;17458;48.958;8.284;2023-01-25T04:20:10;102025.28;;;5.42;70.29
30708;BME280;17458;48.958;8.284;2023-01-25T04:22:57;102026.38;;;5.44;70.50
30708;BME280;17458;48.958;8.284;2023-01-25T04:25:58;102025.63;;;5.63;70.83
30708;BME280;17458;48.958;8.284;2023-01-25T04:28:43;102017.44;;;5.24;71.14
30708;BME280;17458;48.958;8.284;2023-01-25T04:31:27;102020.44;;;5.10;71.25
30708;BME280;17458;48.958;8.284;2023-01-25T04:34:13;102019.56;;;5.37;71.35
30708;BME280;17458;48.958;8.284;2023-01-25T04:36:57;102011.81;;;5.66;70.91
30708;BME280;17458;48.958;8.284;2023-01-25T04:39:44;102009.78;;;5.45;71.38
30708;BME280;17458;48.958;8.284;2023-01-25T04:42:28;102011.78;;;5.47;71.68
30708;BME280;17458;48.958;8.284;2023-01-25T04:45:14;102014.72;;;5.06;72.72
30708;BME280;17458;48.958;8.284;2023-01-25T04:48:01;102009.09;;;5.20;72.85
30708;BME280;17458;48.958;8.284;2023-01-25T04:50:45;102002.50;;;4.97;72.78
30708;BME280;17458;48.958;8.284;2023-01-25T04:53:30;102010.38;;;5.06;72.92
30708;BME280;17458;48.958;8.284;2023-01-25T04:56:18;102007.75;;;5.06;73.77
30708;BME280;17458;48.958;8.284;2023-01-25T04:59:08;102003.81;;;5.20;72.57
30708;BME280;17458;48.958;8.284;2023-01-25T05:01:52;102008.19;;;5.11;72.89
30708;BME280;17458;48.958;8.284;2023-01-25T05:04:37;102000.81;;;4.98;73.62
30708;BME280;17458;48.958;8.284;2023-01-25T05:07:21;101996.16;;;5.04;73.71
30708;BME280;17458;48.958;8.284;2023-01-25T05:10:07;101999.22;;;5.09;73.73
30708;BME280;17458;48.958;8.284;2023-01-25T05:12:55;101998.06;;;4.88;73.55
30708;BME280;17458;48.958;8.284;2023-01-25T05:15:39;101997.66;;;5.19;73.65
30708;BME280;17458;48.958;8.284;2023-01-25T05:18:25;102002.13;;;5.20;73.68
30708;BME280;17458;48.958;8.284;2023-01-25T05:21:11;101998.53;;;5.20;73.14
30708;BME280;17458;48.958;8.284;2023-01-25T05:24:15;102009.72;;;4.73;74.87
30708;BME280;17458;48.958;8.284;2023-01-25T05:27:01;101999.91;;;4.89;73.87
30708;BME280;17458;48.958;8.284;2023-01-25T05:30:07;102004.53;;;4.91;74.38
30708;BME280;17458;48.958;8.284;2023-01-25T05:33:05;102000.53;;;4.86;73.85
30708;BME280;17458;48.958;8.284;2023-01-25T05:35:50;102005.38;;;4.56;74.92
30708;BME280;17458;48.958;8.284;2023-01-25T05:38:34;101994.06;;;4.74;74.87
30708;BME280;17458;48.958;8.284;2023-01-25T05:41:18;101999.16;;;4.90;74.03
30708;BME280;17458;48.958;8.284;2023-01-25T05:44:03;101997.44;;;4.90;73.89
30708;BME280;17458;48.958;8.284;2023-01-25T05:46:49;101998.53;;;4.84;74.43
30708;BME280;17458;48.958;8.284;2023-01-25T05:49:33;102000.91;;;4.55;75.48
30708;BME280;17458;48.958;8.284;2023-01-25T05:52:19;101998.91;;;4.61;75.96
30708;BME280;17458;48.958;8.284;2023-01-25T05:55:03;102006.66;;;5.13;74.45
30708;BME280;17458;48.958;8.284;2023-01-25T05:57:47;101998.38;;;4.82;74.92
30708;BME280;17458;48.958;8.284;2023-01-25T06:00:31;101998.22;;;4.89;73.87
30708;BME280;17458;48.958;8.284;2023-01-25T06:03:15;101996.41;;;4.62;75.08
30708;BME280;17458;48.958;8.284;2023-01-25T06:06:01;102004.44;;;4.73;75.33
30708;BME280;17458;48.958;8.284;2023-01-25T06:08:47;101996.72;;;4.40;75.77
30708;BME280;17458;48.958;8.284;2023-01-25T06:11:33;101998.13;;;4.62;75.26
30708;BME280;17458;48.958;8.284;2023-01-25T06:14:17;101995.91;;;4.84;74.56
30708;BME280;17458;48.958;8.284;2023-01-25T06:17:01;101987.00;;;4.30;76.31
30708;BME280;17458;48.958;8.284;2023-01-25T06:20:04;101979.19;;;4.66;75.94
30708;BME280;17458;48.958;8.284;2023-01-25T06:23:00;101981.69;;;4.73;75.35
30708;BME280;17458;48.958;8.284;2023-01-25T06:25:44;101972.94;;;5.00;74.97
30708;BME280;17458;48.958;8.284;2023-01-25T06:28:29;101974.47;;;4.98;73.73
30708;BME280;17458;48.958;8.284;2023-01-25T06:31:16;101965.50;;;4.96;74.02
30708;BME280;17458;48.958;8.284;2023-01-25T06:34:01;101963.72;;;4.69;74.71
30708;BME280;17458;48.958;8.284;2023-01-25T06:36:48;101962.22;;;4.54;74.80
30708;BME280;17458;48.958;8.284;2023-01-25T06:39:32;101964.19;;;4.65;74.67
30708;BME280;17458;48.958;8.284;2023-01-25T06:42:16;101958.97;;;4.56;75.21
30708;BME280;17458;48.958;8.284;2023-01-25T06:45:00;101964.66;;;4.70;74.63
30708;BME280;17458;48.958;8.284;2023-01-25T06:47:44;101957.28;;;4.93;73.81
30708;BME280;17458;48.958;8.284;2023-01-25T06:50:29;101958.81;;;4.55;75.60
30708;BME280;17458;48.958;8.284;2023-01-25T06:53:13;101965.03;;;4.47;76.23
30708;BME280;17458;48.958;8.284;2023-01-25T06:55:58;101955.25;;;4.54;75.77
30708;BME280;17458;48.958;8.284;2023-01-25T06:58:42;101959.72;;;4.55;74.99
30708;BME280;17458;48.958;8.284;2023-01-25T07:01:26;101968.28;;;4.44;75.77
30708;BME280;17458;48.958;8.284;2023-01-25T07:04:13;101967.41;;;4.80;73.83
30708;BME280;17458;48.958;8.284;2023-01-25T07:06:56;101963.81;;;4.35;75.52
30708;BME280;17458;48.958;8.284;2023-01-25T07:09:40;101965.19;;;4.31;75.88
30708;BME280;17458;48.958;8.284;2023-01-25T07:12:25;101966.13;;;4.14;76.53
30708;BME280;17458;48.958;8.284;2023-01-25T07:15:09;101965.06;;;4.21;76.16
30708;BME280;17458;48.958;8.284;2023-01-25T07:17:53;101970.44;;;3.97;76.64
30708;BME280;17458;48.958;8.284;2023-01-25T07:20:37;101966.09;;;4.49;75.79
30708;BME280;17458;48.958;8.284;2023-01-25T07:23:21;101962.72;;;4.15;76.61
30708;BME280;17458;48.958;8.284;2023-01-25T07:26:14;101969.97;;;4.26;76.09
30708;BME280;17458;48.958;8.284;2023-01-25T07:28:59;101964.09;;;4.29;75.91
30708;BME280;17458;48.958;8.284;2023-01-25T07:31:44;101963.47;;;4.40;75.51
30708;BME280;17458;48.958;8.284;2023-01-25T07:34:28;101962.88;;;4.34;75.13
30708;BME280;17458;48.958;8.284;2023-01-25T07:37:12;101958.53;;;4.26;75.57
30708;BME280;17458;48.958;8.284;2023-01-25T07:39:56;101966.09;;;4.49;74.63
30708;BME280;17458;48.958;8.284;2023-01-25T07:42:41;101966.88;;;4.48;74.97
30708;BME280;17458;48.958;8.284;2023-01-25T07:45:29;101965.41;;;4.77;73.71
30708;BME280;17458;48.958;8.284;2023-01-25T07:48:18;101969.75;;;4.77;74.59
30708;BME280;17458;48.958;8.284;2023-01-25T07:51:05;101967.81;;;4.48;75.26
30708;BME280;17458;48.958;8.284;2023-01-25T07:53:58;101960.06;;;4.41;75.13
30708;BME280;17458;48.958;8.284;2023-01-25T07:56:42;101974.47;;;4.10;76.25
30708;BME280;17458;48.958;8.284;2023-01-25T07:59:27;101970.13;;;4.45;74.94
30708;BME280;17458;48.958;8.284;2023-01-25T08:02:11;101971.03;;;4.37;75.45
30708;BME280;17458;48.958;8.284;2023-01-25T08:04:56;101966.22;;;4.59;74.50
30708;BME280;17458;48.958;8.284;2023-01-25T08:07:39;101974.31;;;4.35;74.77
30708;BME280;17458;48.958;8.284;2023-01-25T08:10:23;101963.78;;;4.43;74.94
30708;BME280;17458;48.958;8.284;2023-01-25T08:13:07;101959.56;;;4.54;74.63
30708;BME280;17458;48.958;8.284;2023-01-25T08:15:53;101963.28;;;4.56;74.27
30708;BME280;17458;48.958;8.284;2023-01-25T08:18:37;101970.19;;;4.81;73.82
30708;BME280;17458;48.958;8.284;2023-01-25T08:21:23;101973.06;;;4.40;74.13
30708;BME280;17458;48.958;8.284;2023-01-25T08:24:08;101969.78;;;4.51;73.87
30708;BME280;17458;48.958;8.284;2023-01-25T08:26:52;101964.91;;;4.19;75.34
30708;BME280;17458;48.958;8.284;2023-01-25T08:29:36;101967.22;;;4.34;74.69
30708;BME280;17458;48.958;8.284;2023-01-25T08:32:20;101964.84;;;4.62;73.81
30708;BME280;17458;48.958;8.284;2023-01-25T08:35:04;101959.84;;;4.66;73.73
30708;BME280;17458;48.958;8.284;2023-01-25T08:37:48;101962.13;;;4.88;72.66
30708;BME280;17458;48.958;8.284;2023-01-25T08:40:32;101957.22;;;4.74;73.32
30708;BME280;17458;48.958;8.284;2023-01-25T08:43:16;101959.13;;;4.58;73.63
30708;BME280;17458;48.958;8.284;2023-01-25T08:46:01;101951.63;;;4.80;73.03
30708;BME280;17458;48.958;8.284;2023-01-25T08:48:45;101952.94;;;4.40;74.06
30708;BME280;17458;48.958;8.284;2023-01-25T08:51:30;101948.81;;;4.78;73.31
30708;BME280;17458;48.958;8.284;2023-01-25T08:54:14;101952.88;;;4.66;72.71
30708;BME280;17458;48.958;8.284;2023-01-25T08:57:00;101953.63;;;4.91;72.69
30708;BME280;17458;48.958;8.284;2023-01-25T08:59:44;101949.66;;;4.51;73.77
30708;BME280;17458;48.958;8.284;2023-01-25T09:02:28;101940.09;;;4.60;73.80
30708;BME280;17458;48.958;8.284;2023-01-25T09:05:13;101929.81;;;5.08;72.46
30708;BME280;17458;48.958;8.284;2023-01-25T09:07:57;101934.53;;;4.49;73.31
30708;BME280;17458;48.958;8.284;2023-01-25T09:10:41;101936.25;;;4.48;73.46
30708;BME280;17458;48.958;8.284;2023-01-25T09:13:25;101935.19;;;4.29;74.04
30708;BME280;17458;48.958;8.284;2023-01-25T09:16:12;101932.34;;;4.53;73.80
30708;BME280;17458;48.958;8.284;2023-01-25T09:19:00;101935.25;;;4.65;73.69
30708;BME280;17458;48.958;8.284;2023-01-25T09:21:45;101943.34;;;4.41;73.71
30708;BME280;17458;48.958;8.284;2023-01-25T09:24:31;101932.03;;;4.50;74.71
30708;BME280;17458;48.958;8.284;2023-01-25T09:27:17;101925.34;;;4.71;73.30
30708;BME280;17458;48.958;8.284;2023-01-25T09:30:01;101930.81;;;4.38;73.67
30708;BME280;17458;48.958;8.284;2023-01-25T09:32:48;101932.09;;;4.33;74.65
30708;BME280;17458;48.958;8.284;2023-01-25T09:35:32;101926.41;;;4.73;73.76
30708;BME280;17458;48.958;8.284;2023-01-25T09:38:18;101936.59;;;4.17;74.13
30708;BME280;17458;48.958;8.284;2023-01-25T09:47:45;101924.56;;;5.08;71.89
30708;BME280;17458;48.958;8.284;2023-01-25T09:50:35;101922.16;;;4.92;72.41
30708;BME280;17458;48.958;8.284;2023-01-25T09:56:22;101923.66;;;4.54;74.05
30708;BME280;17458;48.958;8.284;2023-01-25T09:59:12;101929.25;;;4.57;73.08
30708;BME280;17458;48.958;8.284;2023-01-25T10:02:01;101933.34;;;4.81;72.21
30708;BME280;17458;48.958;8.284;2023-01-25T10:04:51;101923.84;;;5.01;72.40
30708;BME280;17458;48.958;8.284;2023-01-25T10:07:57;101919.72;;;4.85;72.73
30708;BME280;17458;48.958;8.284;2023-01-25T10:10:45;101915.56;;;5.06;71.86
30708;BME280;17458;48.958;8.284;2023-01-25T10:13:31;101919.31;;;4.63;72.80
30708;BME280;17458;48.958;8.284;2023-01-25T10:16:26;101918.59;;;4.92;72.68
30708;BME280;17458;48.958;8.284;2023-01-25T10:22:22;101918.50;;;5.09;72.32
30708;BME280;17458;48.958;8.284;2023-01-25T10:25:18;101909.81;;;4.83;72.49
30708;BME280;17458;48.958;8.284;2023-01-25T10:28:13;101911.56;;;4.74;72.46
30708;BME280;17458;48.958;8.284;2023-01-25T10:31:02;101909.00;;;5.20;71.34
30708;BME280;17458;48.958;8.284;2023-01-25T10:33:48;101909.69;;;5.36;70.87
30708;BME280;17458;48.958;8.284;2023-01-25T10:36:32;101899.75;;;5.15;70.57
30708;BME280;17458;48.958;8.284;2023-01-25T10:39:17;101896.91;;;4.94;71.74
30708;BME280;17458;48.958;8.284;2023-01-25T10:42:06;101891.75;;;5.05;71.68
30708;BME280;17458;48.958;8.284;2023-01-25T10:44:52;101888.00;;;5.11;70.86
30708;BME280;17458;48.958;8.284;2023-01-25T10:47:36;101889.13;;;5.32;70.20
30708;BME280;17458;48.958;8.284;2023-01-25T10:53:29;101886.41;;;4.86;71.74
30708;BME280;17458;48.958;8.284;2023-01-25T10:56:24;101886.75;;;5.08;71.46
30708;BME280;17458;48.958;8.284;2023-01-25T10:59:26;101881.94;;;5.12;71.75
30708;BME280;17458;48.958;8.284;2023-01-25T11:05:29;101870.34;;;5.10;71.70
30708;BME280;17458;48.958;8.284;2023-01-25T11:08:21;101868.78;;;5.12;71.63
30708;BME280;17458;48.958;8.284;2023-01-25T11:11:35;101863.13;;;5.26;70.95
30708;BME280;17458;48.958;8.284;2023-01-25T11:14:22;101865.31;;;4.94;70.84
30708;BME280;17458;48.958;8.284;2023-01-25T11:17:21;101862.09;;;4.52;72.43
30708;BME280;17458;48.958;8.284;2023-01-25T11:20:19;101859.78;;;4.83;71.16
30708;BME280;17458;48.958;8.284;2023-01-25T11:23:20;101848.44;;;4.92;71.64
30708;BME280;17458;48.958;8.284;2023-01-25T11:31:54;101834.94;;;4.98;71.40
30708;BME280;17458;48.958;8.284;2023-01-25T11:34:38;101823.16;;;5.03;70.58
30708;BME280;17458;48.958;8.284;2023-01-25T11:37:38;101817.75;;;4.74;71.14
30708;BME280;17458;48.958;8.284;2023-01-25T11:43:46;101801.97;;;5.39;69.78
30708;BME280;17458;48.958;8.284;2023-01-25T11:55:53;101774.50;;;5.46;68.97
30708;BME280;17458;48.958;8.284;2023-01-25T12:08:23;101748.25;;;5.66;69.43
30708;BME280;17458;48.958;8.284;2023-01-25T12:11:41;101742.22;;;5.48;68.85
30708;BME280;17458;48.958;8.284;2023-01-25T12:20:33;101727.59;;;5.70;68.63
30708;BME280;17458;48.958;8.284;2023-01-25T12:23:38;101720.06;;;5.94;67.78
30708;BME280;17458;48.958;8.284;2023-01-25T12:26:27;101720.06;;;5.94;66.60
30708;BME280;17458;48.958;8.284;2023-01-25T12:29:18;101714.75;;;5.84;67.53
30708;BME280;17458;48.958;8.284;2023-01-25T12:32:33;101704.63;;;5.59;67.76
30708;BME280;17458;48.958;8.284;2023-01-25T12:35:33;101696.31;;;5.65;67.40
30708;BME280;17458;48.958;8.284;2023-01-25T12:38:24;101699.91;;;5.18;68.54
30708;BME280;17458;48.958;8.284;2023-01-25T12:44:41;101691.75;;;5.44;67.68
30708;BME280;17458;48.958;8.284;2023-01-25T12:47:38;101692.59;;;5.53;67.26
30708;BME280;17458;48.958;8.284;2023-01-25T12:50:31;101684.06;;;5.37;67.33
30708;BME280;17458;48.958;8.284;2023-01-25T12:53:26;101680.00;;;5.40;67.70
30708;BME280;17458;48.958;8.284;2023-01-25T12:56:25;101680.22;;;5.62;66.76
30708;BME280;17458;48.958;8.284;2023-01-25T13:02:12;101666.16;;;4.95;67.55
30708;BME280;17458;48.958;8.284;2023-01-25T13:05:28;101670.06;;;5.27;67.32
30708;BME280;17458;48.958;8.284;2023-01-25T13:11:26;101659.81;;;5.12;67.57
30708;BME280;17458;48.958;8.284;2023-01-25T13:20:57;101637.25;;;5.53;67.40
30708;BME280;17458;48.958;8.284;2023-01-25T13:38:28;101615.03;;;5.59;66.00
30708;BME280;17458;48.958;8.284;2023-01-25T13:41:15;101616.97;;;5.62;64.99
30708;BME280;17458;48.958;8.284;2023-01-25T13:44:19;101607.94;;;5.68;65.40
30708;BME280;17458;48.958;8.284;2023-01-25T13:47:12;101607.00;;;5.68;65.37
30708;BME280;17458;48.958;8.284;2023-01-25T13:53:05;101600.91;;;5.98;64.84
30708;BME280;17458;48.958;8.284;2023-01-25T13:55:56;101594.56;;;5.18;66.55
30708;BME280;17458;48.958;8.284;2023-01-25T13:58:47;101594.09;;;5.32;67.05
30708;BME280;17458;48.958;8.284;2023-01-25T14:01:33;101605.19;;;5.38;66.97
30708;BME280;17458;48.958;8.284;2023-01-25T14:04:19;101595.28;;;5.35;66.33
30708;BME280;17458;48.958;8.284;2023-01-25T14:07:03;101596.22;;;5.36;66.54
30708;BME280;17458;48.958;8.284;2023-01-25T14:09:53;101601.91;;;5.41;65.72
30708;BME280;17458;48.958;8.284;2023-01-25T14:12:39;101596.50;;;5.39;66.61
30708;BME280;17458;48.958;8.284;2023-01-25T14:15:27;101599.88;;;5.28;66.33
30708;BME280;17458;48.958;8.284;2023-01-25T14:18:20;101583.25;;;5.19;67.28
30708;BME280;17458;48.958;8.284;2023-01-25T14:21:19;101586.56;;;5.26;66.32
30708;BME280;17458;48.958;8.284;2023-01-25T14:24:10;101581.16;;;5.25;66.69
30708;BME280;17458;48.958;8.284;2023-01-25T14:26:54;101584.75;;;5.35;66.41
30708;BME280;17458;48.958;8.284;2023-01-25T14:29:38;101582.69;;;5.13;66.57
30708;BME280;17458;48.958;8.284;2023-01-25T14:32:25;101574.22;;;5.07;66.77
30708;BME280;17458;48.958;8.284;2023-01-25T14:38:32;101563.63;;;5.25;66.08
30708;BME280;17458;48.958;8.284;2023-01-25T14:44:13;101560.22;;;5.65;64.68
30708;BME280;17458;48.958;8.284;2023-01-25T14:47:30;101558.34;;;5.64;65.21
30708;BME280;17458;48.958;8.284;2023-01-25T14:53:20;101558.69;;;5.39;66.47
30708;BME280;17458;48.958;8.284;2023-01-25T14:56:18;101545.78;;;5.42;66.22
30708;BME280;17458;48.958;8.284;2023-01-25T15:05:27;101538.84;;;5.62;64.62
30708;BME280;17458;48.958;8.284;2023-01-25T15:08:25;101532.31;;;5.28;65.46
30708;BME280;17458;48.958;8.284;2023-01-25T15:11:31;101524.91;;;5.24;66.69
30708;BME280;17458;48.958;8.284;2023-01-25T15:14:27;101525.06;;;5.26;65.97
30708;BME280;17458;48.958;8.284;2023-01-25T15:18:05;101511.97;;;5.46;65.40
30708;BME280;17458;48.958;8.284;2023-01-25T15:20:42;101511.06;;;5.56;64.77
30708;BME280;17458;48.958;8.284;2023-01-25T15:23:28;101510.00;;;5.64;64.35
30708;BME280;17458;48.958;8.284;2023-01-25T15:26:18;101511.34;;;5.69;64.79
30708;BME280;17458;48.958;8.284;2023-01-25T15:29:14;101515.41;;;5.65;65.11
30708;BME280;17458;48.958;8.284;2023-01-25T15:31:59;101511.63;;;5.23;65.58
30708;BME280;17458;48.958;8.284;2023-01-25T15:34:43;101510.91;;;5.54;64.70
30708;BME280;17458;48.958;8.284;2023-01-25T15:37:27;101505.78;;;5.46;64.56
30708;BME280;17458;48.958;8.284;2023-01-25T15:40:12;101502.66;;;5.80;64.34
30708;BME280;17458;48.958;8.284;2023-01-25T15:42:56;101504.69;;;6.13;63.35
30708;BME280;17458;48.958;8.284;2023-01-25T15:45:45;101498.22;;;6.10;62.51
30708;BME280;17458;48.958;8.284;2023-01-25T15:48:34;101490.69;;;5.94;63.61
30708;BME280;17458;48.958;8.284;2023-01-25T15:51:19;101483.56;;;5.93;63.29
30708;BME280;17458;48.958;8.284;2023-01-25T15:54:03;101476.81;;;5.56;63.83
30708;BME280;17458;48.958;8.284;2023-01-25T15:56:51;101466.03;;;5.73;63.59
30708;BME280;17458;48.958;8.284;2023-01-25T15:59:37;101471.00;;;5.80;63.55
30708;BME280;17458;48.958;8.284;2023-01-25T16:02:21;101469.44;;;5.72;63.81
30708;BME280;17458;48.958;8.284;2023-01-25T16:05:06;101461.78;;;5.55;63.84
30708;BME280;17458;48.958;8.284;2023-01-25T16:07:52;101463.09;;;5.80;63.79
30708;BME280;17458;48.958;8.284;2023-01-25T16:10:36;101468.53;;;6.12;63.12
30708;BME280;17458;48.958;8.284;2023-01-25T16:13:20;101464.56;;;5.66;63.60
30708;BME280;17458;48.958;8.284;2023-01-25T16:16:16;101463.66;;;5.86;63.65
30708;BME280;17458;48.958;8.284;2023-01-25T16:19:01;101461.50;;;5.62;63.53
30708;BME280;17458;48.958;8.284;2023-01-25T16:21:46;101454.69;;;5.74;63.27
30708;BME280;17458;48.958;8.284;2023-01-25T16:24:31;101455.59;;;5.54;63.91
30708;BME280;17458;48.958;8.284;2023-01-25T16:27:17;101464.53;;;5.46;63.90
30708;BME280;17458;48.958;8.284;2023-01-25T16:30:16;101458.06;;;5.32;64.50
30708;BME280;17458;48.958;8.284;2023-01-25T16:33:01;101456.84;;;5.19;65.38
30708;BME280;17458;48.958;8.284;2023-01-25T16:35:45;101454.09;;;5.27;64.35
30708;BME280;17458;48.958;8.284;2023-01-25T16:38:29;101455.16;;;5.40;64.27